ADDS METAR Data INFO
IDs: Format: Raw Decoded Include TAF

Data at: 0331 UTC 19 Jul 2018

KFXY 190315Z AUTO 12004KT 10SM CLR 21/19 A2998 RMK AO2
KFXY 190255Z AUTO 12004KT 10SM CLR 22/19 A2998 RMK AO2
KFXY 190235Z AUTO 13003KT 10SM CLR 22/19 A2998 RMK AO2
KFXY 190215Z AUTO 12003KT 10SM CLR 22/19 A2997 RMK AO2
KFXY 190155Z AUTO 11005KT 10SM CLR 23/19 A2997 RMK AO2
KFXY 190135Z AUTO 12004KT 10SM CLR 23/19 A2998 RMK AO2
KFXY 190115Z AUTO 13005KT 10SM CLR 25/18 A2998 RMK AO2
KFXY 190055Z AUTO 13005KT 10SM CLR 25/18 A2998 RMK AO2
KFXY 190035Z AUTO 14005KT 10SM CLR 25/18 A2999 RMK AO2
KFXY 190015Z AUTO 14006KT 10SM CLR 26/17 A2999 RMK AO2
KFXY 182355Z AUTO 14005KT 10SM SCT043 26/18 A2999 RMK AO2
KFXY 182335Z AUTO 13005KT 10SM SCT043 27/17 A2999 RMK AO2
KFXY 182315Z AUTO 14006KT 10SM CLR 27/17 A2999 RMK AO2
KFXY 182255Z AUTO 15008KT 10SM SCT043 28/17 A3000 RMK AO2
KFXY 182235Z AUTO 14006KT 10SM SCT043 28/17 A3000 RMK AO2
KFXY 182215Z AUTO 15008KT 10SM SCT043 27/18 A3001 RMK AO2
KFXY 182155Z AUTO 14006KT 10SM SCT043 SCT055 28/18 A3001 RMK AO2
KFXY 182135Z AUTO 14008KT 10SM CLR 28/17 A3002 RMK AO2
KFXY 182115Z AUTO 16004KT 10SM SCT044 SCT075 27/17 A3002 RMK AO2
KFXY 182055Z AUTO 14005KT 10SM SCT042 27/18 A3003 RMK AO2
KFXY 182035Z AUTO 12007KT 10SM SCT060 SCT085 28/18 A3003 RMK AO2
KFXY 182015Z AUTO 13006KT 10SM SCT041 SCT050 BKN060 27/18 A3004 RMK AO2
KFXY 181955Z AUTO 11005KT 10SM BKN039 BKN046 OVC060 27/18 A3004 RMK AO2
KFXY 181935Z AUTO 10003KT 10SM BKN039 BKN047 BKN055 27/18 A3006 RMK AO2
KFXY 181915Z AUTO 13003KT 10SM SCT039 27/17 A3006 RMK AO2
KFXY 181855Z AUTO 17005KT 10SM CLR 27/18 A3006 RMK AO2
KFXY 181835Z AUTO 15005KT 10SM CLR 27/17 A3007 RMK AO2
KFXY 181815Z AUTO 14004KT 10SM CLR 27/18 A3008 RMK AO2
KFXY 181755Z AUTO 16004KT 10SM SCT034 27/18 A3008 RMK AO2
KFXY 181735Z AUTO 20006KT 10SM SCT034 27/18 A3008 RMK AO2
KFXY 181715Z AUTO 15005KT 10SM CLR 27/18 A3008 RMK AO2
KFXY 181655Z AUTO 16006KT 10SM CLR 26/17 A3009 RMK AO2
KFXY 181635Z AUTO 14007KT 10SM CLR 27/17 A3009 RMK AO2
KFXY 181615Z AUTO 15005KT 10SM CLR 26/17 A3009 RMK AO2
KFXY 181555Z AUTO 12006KT 10SM CLR 26/17 A3010 RMK AO2
KFXY 181535Z AUTO 15007KT 10SM CLR 25/17 A3010 RMK AO2
KFXY 181515Z AUTO 13006KT 10SM CLR 25/17 A3011 RMK AO2
KFXY 181455Z AUTO 14006KT 10SM CLR 25/16 A3011 RMK AO2
KFXY 181435Z AUTO 14007KT 10SM CLR 24/16 A3011 RMK AO2
KFXY 181415Z AUTO 14006KT 10SM CLR 23/16 A3011 RMK AO2
KFXY 181355Z AUTO 13006KT 10SM CLR 23/15 A3012 RMK AO2
KFXY 181335Z AUTO 12006KT 10SM CLR 22/16 A3012 RMK AO2
KFXY 181315Z AUTO 11006KT 10SM CLR 21/16 A3012 RMK AO2
KFXY 181255Z AUTO 12005KT 10SM SCT085 21/16 A3012 RMK AO2
KFXY 181235Z AUTO 13004KT 10SM OVC075 20/16 A3012 RMK AO2
KFXY 181215Z AUTO 14003KT 10SM SCT065 OVC075 19/16 A3012 RMK AO2
KFXY 181155Z AUTO 14003KT 10SM BKN075 OVC085 18/16 A3013 RMK AO2
KFXY 181135Z AUTO 12003KT 10SM SCT075 BKN085 18/16 A3012 RMK AO2
KFXY 181115Z AUTO 10004KT 10SM SCT085 18/15 A3012 RMK AO2
KFXY 181055Z AUTO 00000KT 10SM SCT085 18/15 A3012 RMK AO2
KFXY 181035Z AUTO 09003KT 10SM SCT085 18/15 A3012 RMK AO2
KFXY 181015Z AUTO 07004KT 10SM SCT075 BKN085 18/15 A3012 RMK AO2
KFXY 180955Z AUTO 12004KT 10SM OVC075 18/15 A3012 RMK AO2
KFXY 180935Z AUTO 00000KT 10SM SCT046 SCT060 BKN085 18/15 A3012 RMK AO2
KFXY 180915Z AUTO 08004KT 10SM SCT046 BKN050 OVC075 18/16 A3013 RMK AO2
KFXY 180855Z AUTO 11003KT 10SM SCT050 SCT080 17/16 A3012 RMK AO2
KFXY 180835Z AUTO 12003KT 10SM CLR 17/16 A3012 RMK AO2
KFXY 180815Z AUTO 00000KT 10SM CLR 18/16 A3013 RMK AO2
KFXY 180755Z AUTO 00000KT 10SM SCT050 SCT070 18/16 A3013 RMK AO2
KFXY 180735Z AUTO 09003KT 10SM SCT047 SCT055 OVC070 18/16 A3012 RMK AO2
KFXY 180715Z AUTO 12003KT 10SM OVC047 19/16 A3012 RMK AO2
KFXY 180655Z AUTO 10003KT 10SM BKN049 BKN055 19/16 A3012 RMK AO2
KFXY 180635Z AUTO 11004KT 10SM BKN049 18/16 A3012 RMK AO2
KFXY 180615Z AUTO 11003KT 10SM CLR 18/16 A3012 RMK AO2
KFXY 180555Z AUTO 11003KT 10SM CLR 19/16 A3012 RMK AO2
KFXY 180535Z AUTO 10004KT 10SM CLR 20/16 A3012 RMK AO2
KFXY 180515Z AUTO 10004KT 10SM CLR 20/15 A3012 RMK AO2
KFXY 180455Z AUTO 00000KT 10SM CLR 20/16 A3011 RMK AO2
KFXY 180435Z AUTO 00000KT 10SM CLR 19/17 A3011 RMK AO2
KFXY 180415Z AUTO 15004KT 10SM CLR 21/16 A3011 RMK AO2
KFXY 180355Z AUTO 05003KT 10SM CLR 21/16 A3011 RMK AO2
KFXY 180335Z AUTO 00000KT 10SM CLR 21/17 A3011 RMK AO2
KFXY 180315Z AUTO 00000KT 10SM CLR 21/17 A3011 RMK AO2
KFXY 180255Z AUTO 10003KT 10SM CLR 22/17 A3010 RMK AO2
KFXY 180235Z AUTO 00000KT 10SM CLR 22/17 A3010 RMK AO2
KFXY 180215Z AUTO 00000KT 10SM CLR 23/17 A3009 RMK AO2
KFXY 180155Z AUTO 04003KT 10SM CLR 23/17 A3009 RMK AO2
KFXY 180135Z AUTO 03004KT 10SM CLR 23/17 A3009 RMK AO2
KFXY 180115Z AUTO 03004KT 10SM CLR 25/17 A3010 RMK AO2
KFXY 180055Z AUTO 02004KT 10SM CLR 25/17 A3009 RMK AO2
KFXY 180035Z AUTO 03005KT 10SM CLR 26/17 A3009 RMK AO2
KFXY 180015Z AUTO 34005KT 10SM CLR 27/15 A3010 RMK AO2
KFXY 172355Z AUTO 36004KT 10SM CLR 27/15 A3010 RMK AO2
KFXY 172335Z AUTO 02003KT 10SM SCT050 27/16 A3010 RMK AO2
KFXY 172315Z AUTO 02004KT 10SM SCT050 27/15 A3010 RMK AO2
KFXY 172255Z AUTO 05005KT 10SM BKN050 28/16 A3010 RMK AO2
KFXY 172235Z AUTO 11003KT 10SM BKN050 BKN060 27/16 A3011 RMK AO2
KFXY 172215Z AUTO 00000KT 10SM OVC055 28/16 A3011 RMK AO2
KFXY 172155Z AUTO 00000KT 10SM BKN055 28/15 A3011 RMK AO2
KFXY 172135Z AUTO 00000KT 10SM BKN055 27/15 A3011 RMK AO2
KFXY 172115Z AUTO 02003KT 10SM BKN065 28/15 A3011 RMK AO2
KFXY 172055Z AUTO 00000KT 10SM SCT065 28/15 A3012 RMK AO2
KFXY 172035Z AUTO 03005KT 10SM SCT050 28/16 A3012 RMK AO2
KFXY 172015Z AUTO 00000KT 10SM CLR 27/15 A3012 RMK AO2
KFXY 171955Z AUTO 36003KT 10SM CLR 28/16 A3013 RMK AO2
KFXY 171935Z AUTO 00000KT 10SM CLR 27/15 A3013 RMK AO2
KFXY 171915Z AUTO 35004KT 10SM CLR 27/15 A3013 RMK AO2
KFXY 171855Z AUTO 00000KT 10SM CLR 27/16 A3013 RMK AO2
KFXY 171835Z AUTO 00000KT 10SM CLR 27/15 A3014 RMK AO2
KFXY 171815Z AUTO 02004KT 10SM CLR 27/16 A3014 RMK AO2
KFXY 171755Z AUTO 06004KT 10SM CLR 27/16 A3014 RMK AO2
KFXY 171735Z AUTO 00000KT 10SM CLR 26/15 A3014 RMK AO2
KFXY 171715Z AUTO 03005KT 10SM CLR 26/16 A3015 RMK AO2
KFXY 171655Z AUTO 06003KT 10SM CLR 26/15 A3015 RMK AO2
KFXY 171635Z AUTO 05006KT 10SM CLR 25/16 A3014 RMK AO2
KFXY 171615Z AUTO 04005KT 10SM CLR 25/16 A3014 RMK AO2
KFXY 171555Z AUTO 00000KT 10SM CLR 25/16 A3014 RMK AO2